TBA9816 ZBAA-ZULS
Flight info
| Callsign | TBA9816 |
|---|---|
| Flight time | N/A |
| Altitude | 30100 |
| Route | BOTPU6J BOTPU W47 IDSOT W48 MAKIP DCT MULOB W220 TUTGO/K0872S0980 W220 NIRUV B215 VENIV W198 PANRA DCT XNN DCT IGELA DCT TAPUN W500 LXA |
| Aircraft | A319/M-SDE3FGHIRWY/LB1 |
Departure
| Time | 2026-05-06 10:39 |
|---|---|
| Airport | Beijing Capital International Airport (ZBAA) |
Arrival
| Time | N/A |
|---|---|
| Airport | Lhasa Gonggar International Airport (ZULS) |
| Time | Latitude | Longitude | Altitude | Speed | Heading |
|---|---|---|---|---|---|
| 2026-05-06 10:26 | 40.07686 | 116.60245 | 118 ft | 0 kts | 26° |
| 2026-05-06 10:33 | 40.07682 | 116.60243 | 118 ft | 2 kts | 26° |
| 2026-05-06 10:33 | 40.07668 | 116.60233 | 117 ft | 2 kts | 26° |
| 2026-05-06 10:33 | 40.07653 | 116.60224 | 108 ft | 2 kts | 26° |
| 2026-05-06 10:34 | 40.07639 | 116.60215 | 126 ft | 2 kts | 26° |
| 2026-05-06 10:34 | 40.07624 | 116.60206 | 122 ft | 2 kts | 26° |
| 2026-05-06 10:34 | 40.07610 | 116.60196 | 121 ft | 2 kts | 19° |
| 2026-05-06 10:34 | 40.07594 | 116.60194 | 122 ft | 2 kts | 332° |
| 2026-05-06 10:35 | 40.07592 | 116.60192 | 122 ft | 2 kts | 313° |
| 2026-05-06 10:35 | 40.07618 | 116.60125 | 121 ft | 14 kts | 292° |
| 2026-05-06 10:35 | 40.07709 | 116.60028 | 121 ft | 20 kts | 351° |
| 2026-05-06 10:35 | 40.07845 | 116.60006 | 121 ft | 20 kts | 353° |
| 2026-05-06 10:36 | 40.07981 | 116.59985 | 122 ft | 20 kts | 353° |
| 2026-05-06 10:36 | 40.08117 | 116.59964 | 123 ft | 20 kts | 353° |
| 2026-05-06 10:36 | 40.08253 | 116.59944 | 123 ft | 20 kts | 353° |
| 2026-05-06 10:36 | 40.08389 | 116.59923 | 124 ft | 20 kts | 353° |
| 2026-05-06 10:37 | 40.08529 | 116.59900 | 123 ft | 20 kts | 351° |
| 2026-05-06 10:37 | 40.08665 | 116.59877 | 121 ft | 20 kts | 352° |
| 2026-05-06 10:37 | 40.08806 | 116.59856 | 121 ft | 20 kts | 354° |
| 2026-05-06 10:37 | 40.08944 | 116.59834 | 121 ft | 20 kts | 354° |
| 2026-05-06 10:38 | 40.08984 | 116.59694 | 123 ft | 18 kts | 262° |
| 2026-05-06 10:38 | 40.08955 | 116.59534 | 124 ft | 18 kts | 224° |
| 2026-05-06 10:38 | 40.08866 | 116.59495 | 122 ft | 10 kts | 171° |
| 2026-05-06 10:38 | 40.08752 | 116.59514 | 122 ft | 38 kts | 173° |
| 2026-05-06 10:39 | 40.08265 | 116.59590 | 123 ft | 99 kts | 173° |
| 2026-05-06 10:39 | 40.07405 | 116.59724 | 124 ft | 148 kts | 173° |
| 2026-05-06 10:39 | 40.06261 | 116.59902 | 303 ft | 171 kts | 173° |
| 2026-05-06 10:39 | 40.05076 | 116.60081 | 841 ft | 172 kts | 172° |
| 2026-05-06 10:40 | 40.03885 | 116.60263 | 1437 ft | 172 kts | 171° |
| 2026-05-06 10:40 | 40.02687 | 116.60450 | 1975 ft | 179 kts | 169° |
| 2026-05-06 10:40 | 40.01379 | 116.60664 | 2225 ft | 200 kts | 171° |
| 2026-05-06 10:40 | 39.99927 | 116.60899 | 2513 ft | 221 kts | 172° |
| 2026-05-06 10:41 | 39.98320 | 116.61153 | 2826 ft | 245 kts | 172° |
| 2026-05-06 10:41 | 39.96568 | 116.61426 | 3367 ft | 260 kts | 173° |
| 2026-05-06 10:41 | 39.94741 | 116.61706 | 4073 ft | 268 kts | 174° |
| 2026-05-06 10:41 | 39.92858 | 116.61991 | 4786 ft | 277 kts | 175° |
| 2026-05-06 10:42 | 39.90924 | 116.62287 | 5551 ft | 282 kts | 175° |
| 2026-05-06 10:42 | 39.88949 | 116.62592 | 6285 ft | 289 kts | 176° |
| 2026-05-06 10:42 | 39.86931 | 116.62906 | 7000 ft | 295 kts | 176° |
| 2026-05-06 10:42 | 39.84877 | 116.63228 | 7736 ft | 300 kts | 175° |
| 2026-05-06 10:43 | 39.82790 | 116.63554 | 8454 ft | 305 kts | 175° |
| 2026-05-06 10:43 | 39.80691 | 116.63878 | 9183 ft | 310 kts | 176° |
| 2026-05-06 10:43 | 39.78538 | 116.64210 | 9917 ft | 313 kts | 176° |
| 2026-05-06 10:44 | 39.73987 | 116.64903 | 10541 ft | 351 kts | 176° |
| 2026-05-06 10:44 | 39.72312 | 116.65091 | 10629 ft | 364 kts | 183° |
| 2026-05-06 10:44 | 39.69788 | 116.64524 | 10761 ft | 375 kts | 205° |
| 2026-05-06 10:44 | 39.67577 | 116.62752 | 11176 ft | 374 kts | 227° |
| 2026-05-06 10:45 | 39.66018 | 116.60103 | 11816 ft | 368 kts | 247° |
| 2026-05-06 10:45 | 39.65282 | 116.56969 | 12527 ft | 362 kts | 265° |
| 2026-05-06 10:45 | 39.65059 | 116.53723 | 13280 ft | 361 kts | 267° |
| 2026-05-06 10:45 | 39.64856 | 116.50484 | 13978 ft | 360 kts | 266° |
| 2026-05-06 10:46 | 39.64652 | 116.47230 | 14616 ft | 361 kts | 266° |
| 2026-05-06 10:46 | 39.64444 | 116.43979 | 15225 ft | 362 kts | 265° |
| 2026-05-06 10:46 | 39.64231 | 116.40720 | 15831 ft | 363 kts | 265° |
| 2026-05-06 10:46 | 39.64014 | 116.37444 | 16437 ft | 365 kts | 264° |
| 2026-05-06 10:47 | 39.63800 | 116.34206 | 17016 ft | 366 kts | 264° |
| 2026-05-06 10:47 | 39.63583 | 116.30905 | 17577 ft | 367 kts | 264° |
| 2026-05-06 10:47 | 39.63363 | 116.27593 | 18136 ft | 369 kts | 263° |
| 2026-05-06 10:47 | 39.63143 | 116.24271 | 18594 ft | 371 kts | 263° |
| 2026-05-06 10:48 | 39.62921 | 116.20921 | 19010 ft | 374 kts | 264° |
| 2026-05-06 10:48 | 39.62696 | 116.17546 | 19425 ft | 377 kts | 264° |
| 2026-05-06 10:48 | 39.62470 | 116.14149 | 19845 ft | 379 kts | 264° |
| 2026-05-06 10:48 | 39.62242 | 116.10733 | 20267 ft | 381 kts | 264° |
| 2026-05-06 10:49 | 39.62009 | 116.07296 | 20673 ft | 384 kts | 264° |
| 2026-05-06 10:49 | 39.61776 | 116.03841 | 21078 ft | 386 kts | 264° |
| 2026-05-06 10:49 | 39.61540 | 116.00366 | 21480 ft | 388 kts | 264° |
| 2026-05-06 10:49 | 39.61301 | 115.96875 | 21857 ft | 390 kts | 264° |
| 2026-05-06 10:50 | 39.61059 | 115.93360 | 22261 ft | 392 kts | 264° |
| 2026-05-06 10:50 | 39.60816 | 115.89827 | 22615 ft | 394 kts | 264° |
| 2026-05-06 10:50 | 39.60683 | 115.86266 | 22969 ft | 398 kts | 270° |
| 2026-05-06 10:50 | 39.61038 | 115.82694 | 23319 ft | 403 kts | 280° |
| 2026-05-06 10:51 | 39.61925 | 115.79215 | 23645 ft | 410 kts | 290° |
| 2026-05-06 10:51 | 39.63243 | 115.75893 | 23943 ft | 415 kts | 294° |
| 2026-05-06 10:51 | 39.64590 | 115.72635 | 24243 ft | 417 kts | 293° |
| 2026-05-06 10:51 | 39.65998 | 115.69342 | 24577 ft | 420 kts | 297° |
| 2026-05-06 10:52 | 39.67807 | 115.66322 | 24969 ft | 427 kts | 307° |
| 2026-05-06 10:52 | 39.70092 | 115.63720 | 25301 ft | 438 kts | 317° |
| 2026-05-06 10:52 | 39.72727 | 115.61745 | 25586 ft | 450 kts | 328° |
| 2026-05-06 10:52 | 39.75620 | 115.60147 | 25849 ft | 453 kts | 329° |
| 2026-05-06 10:53 | 39.78528 | 115.58551 | 26111 ft | 454 kts | 329° |
| 2026-05-06 10:53 | 39.81446 | 115.56949 | 26377 ft | 456 kts | 329° |
| 2026-05-06 10:53 | 39.84375 | 115.55340 | 26754 ft | 455 kts | 329° |
| 2026-05-06 10:53 | 39.87282 | 115.53739 | 27132 ft | 453 kts | 329° |
| 2026-05-06 10:54 | 39.90188 | 115.52130 | 27517 ft | 452 kts | 328° |
| 2026-05-06 10:54 | 39.92901 | 115.50194 | 27947 ft | 438 kts | 317° |
| 2026-05-06 10:54 | 39.95166 | 115.47641 | 28329 ft | 425 kts | 306° |
| 2026-05-06 10:54 | 39.96942 | 115.44628 | 28739 ft | 414 kts | 295° |
| 2026-05-06 10:55 | 39.98206 | 115.41309 | 29141 ft | 405 kts | 285° |